Time;durP1;ratioP1;P1;durP2;ratioP2;P2;SDS_P1;SDS_P2;PMS_P1;PMS_P2;Temp;Humidity;BMP_temperature;BMP_pressure;BME280_temperature;BME280_humidity;BME280_pressure;Samples;Min_cycle;Max_cycle;Signal;HPM_P1;HPM_P2
2023/02/15 00:00:36;;;;;;;8.13;7.03;;;;;;;2.29;100.00;99785.56;15284646;19;20022;-54
2023/02/15 00:06:01;;;;;;;7.70;7.00;;;;;;;2.19;100.00;99776.28;15285156;19;20048;-53
2023/02/15 00:11:44;;;;;;;8.15;7.15;;;;;;;2.06;100.00;99768.88;15286669;19;20018;-52
2023/02/15 00:17:12;;;;;;;10.25;8.07;;;;;;;1.94;100.00;99769.50;15277041;19;20036;-57
2023/02/15 00:22:36;;;;;;;9.57;8.10;;;;;;;1.87;100.00;99773.38;15281952;19;20018;-55
2023/02/15 00:28:02;;;;;;;10.07;8.48;;;;;;;1.81;100.00;99774.53;15282782;19;20094;-56
2023/02/15 00:33:30;;;;;;;10.02;8.82;;;;;;;1.75;100.00;99778.31;15282840;19;20056;-51
2023/02/15 00:39:01;;;;;;;10.98;9.55;;;;;;;1.72;100.00;99775.81;15277178;19;20126;-55
2023/02/15 00:44:25;;;;;;;14.50;10.85;;;;;;;1.69;100.00;99800.72;15270344;19;20022;-52
2023/02/15 00:49:52;;;;;;;14.52;10.43;;;;;;;1.68;100.00;99795.50;15273668;19;20022;-50
2023/02/15 00:55:17;;;;;;;13.52;10.25;;;;;;;1.69;100.00;99810.50;15283334;19;20014;-51
2023/02/15 01:00:42;;;;;;;15.55;10.93;;;;;;;1.68;100.00;99816.75;15281448;19;20416;-55
2023/02/15 01:06:10;;;;;;;11.80;10.00;;;;;;;1.66;100.00;99818.63;15278691;19;20043;-52
2023/02/15 01:11:35;;;;;;;12.35;9.50;;;;;;;1.62;100.00;99817.91;15281890;19;20014;-53
2023/02/15 01:16:59;;;;;;;10.80;8.30;;;;;;;1.59;100.00;99814.53;15279645;19;20097;-49
2023/02/15 01:22:26;;;;;;;8.32;7.38;;;;;;;1.60;100.00;99817.09;15275397;19;20500;-53
2023/02/15 01:27:51;;;;;;;8.98;6.40;;;;;;;1.60;100.00;99805.59;15279059;19;20035;-52
2023/02/15 01:33:17;;;;;;;6.85;6.15;;;;;;;1.59;100.00;99802.09;15280761;19;20026;-55
2023/02/15 01:38:45;;;;;;;7.88;6.68;;;;;;;1.57;100.00;99787.16;15278572;19;20029;-51
2023/02/15 01:44:12;;;;;;;7.65;6.80;;;;;;;1.50;100.00;99770.66;15270803;19;20018;-53
2023/02/15 01:49:36;;;;;;;7.85;6.68;;;;;;;1.46;100.00;99761.97;15279387;19;20262;-50
2023/02/15 01:55:05;;;;;;;8.05;6.90;;;;;;;1.43;100.00;99755.91;15271166;19;20603;-51
2023/02/15 02:00:29;;;;;;;8.77;7.57;;;;;;;1.40;100.00;99750.75;15275478;19;20035;-51
2023/02/15 02:05:55;;;;;;;9.90;7.88;;;;;;;1.32;100.00;99738.66;15313612;19;20018;-52
2023/02/15 02:11:22;;;;;;;7.65;6.80;;;;;;;1.23;100.00;99737.28;15277304;19;20027;-55
2023/02/15 02:16:58;;;;;;;7.85;7.05;;;;;;;1.18;100.00;99736.66;15271000;19;20046;-55
2023/02/15 02:22:52;;;;;;;8.88;7.43;;;;;;;1.18;100.00;99749.03;15272434;19;20024;-51
2023/02/15 02:28:45;;;;;;;8.85;7.22;;;;;;;1.13;100.00;99738.63;15268400;19;20011;-49
2023/02/15 02:34:19;;;;;;;9.18;6.63;;;;;;;1.03;100.00;99718.75;15275489;19;20883;-49
2023/02/15 02:40:00;;;;;;;8.43;6.68;;;;;;;0.95;100.00;99704.97;15271423;19;20102;-52
2023/02/15 02:45:31;;;;;;;7.70;6.28;;;;;;;0.85;100.00;99692.13;15273672;19;20558;-51
2023/02/15 02:50:58;;;;;;;7.93;7.05;;;;;;;0.74;100.00;99686.44;15271793;19;20010;-55
2023/02/15 02:56:31;;;;;;;6.68;6.05;;;;;;;0.69;100.00;99697.25;15271772;19;20736;-52
2023/02/15 03:02:01;;;;;;;6.90;6.18;;;;;;;0.60;100.00;99689.66;15273243;19;20007;-49
2023/02/15 03:07:30;;;;;;;7.75;6.38;;;;;;;0.47;100.00;99684.03;15270836;19;20020;-51
2023/02/15 03:12:56;;;;;;;7.93;6.80;;;;;;;0.33;100.00;99681.09;15272276;19;20018;-49
2023/02/15 03:18:25;;;;;;;7.65;6.93;;;;;;;0.19;100.00;99679.91;15269207;19;20019;-50
2023/02/15 03:23:53;;;;;;;8.40;5.93;;;;;;;-0.01;100.00;99673.66;15272479;19;20018;-51
2023/02/15 03:29:19;;;;;;;210.98;7.90;;;;;;;-0.33;100.00;99662.59;15279640;19;20468;-52
2023/02/15 03:34:44;;;;;;;149.13;5.88;;;;;;;-0.60;100.00;99653.06;15287985;19;20074;-50
2023/02/15 03:46:08;;;;;;;53.03;5.38;;;;;;;-1.12;100.00;99643.59;15286571;19;20022;-49
2023/02/15 03:51:38;;;;;;;34.65;5.03;;;;;;;-1.26;100.00;99652.00;15285977;19;20021;-50
2023/02/15 04:02:50;;;;;;;376.05;10.25;;;;;;;-1.56;100.00;99642.47;15278754;19;20010;-53
2023/02/15 04:08:15;;;;;;;302.13;9.05;;;;;;;-1.68;100.00;99640.25;15281657;19;20014;-53
2023/02/15 04:13:43;;;;;;;178.95;7.95;;;;;;;-1.80;100.00;99641.56;15283208;19;20022;-49
2023/02/15 04:30:27;;;;;;;15.00;5.43;;;;;;;-1.93;100.00;99662.25;15280007;19;20026;-50
2023/02/15 04:35:53;;;;;;;199.20;8.27;;;;;;;-1.98;100.00;99661.53;15277503;19;20007;-51
2023/02/15 04:41:17;;;;;;;285.90;11.43;;;;;;;-2.02;100.00;99667.84;15275877;19;20014;-49
2023/02/15 04:46:45;;;;;;;81.47;10.43;;;;;;;-2.01;100.00;99674.84;15281215;19;20014;-52
2023/02/15 04:52:11;;;;;;;15.30;9.63;;;;;;;-2.00;100.00;99663.38;15278765;19;20015;-52
2023/02/15 04:57:35;;;;;;;33.13;9.98;;;;;;;-1.97;100.00;99662.41;15277230;19;20023;-50
2023/02/15 05:03:02;;;;;;;205.73;12.02;;;;;;;-1.95;100.00;99669.38;15277655;19;20016;-49
2023/02/15 05:08:28;;;;;;;245.77;12.38;;;;;;;-1.93;100.00;99667.53;15270981;19;20462;-49
2023/02/15 05:13:52;;;;;;;198.85;13.60;;;;;;;-1.96;100.00;99662.38;15279315;19;20025;-50
2023/02/15 05:19:20;;;;;;;24.15;12.65;;;;;;;-1.91;100.00;99665.69;15276381;19;20025;-50
2023/02/15 05:30:23;;;;;;;28.50;11.43;;;;;;;-1.85;100.00;99664.63;15266686;19;20479;-50
2023/02/15 05:35:51;;;;;;;19.08;11.57;;;;;;;-1.88;100.00;99662.09;15273009;19;20006;-53
2023/02/15 05:41:22;;;;;;;17.55;12.55;;;;;;;-1.86;100.00;99654.97;15266369;19;20082;-54
2023/02/15 05:46:46;;;;;;;15.25;12.23;;;;;;;-1.86;100.00;99650.56;15274623;19;20344;-49
2023/02/15 05:52:15;;;;;;;14.73;12.10;;;;;;;-1.82;100.00;99655.75;15274886;19;20472;-50
2023/02/15 05:57:39;;;;;;;13.88;10.85;;;;;;;-1.80;100.00;99660.06;15274653;19;20464;-50
2023/02/15 06:03:04;;;;;;;13.27;10.02;;;;;;;-1.80;100.00;99668.00;15271547;19;20451;-49
2023/02/15 06:08:31;;;;;;;11.85;10.20;;;;;;;-1.77;100.00;99667.91;15273372;19;20437;-52
2023/02/15 06:13:56;;;;;;;12.15;9.57;;;;;;;-1.73;100.00;99672.13;15271778;19;20825;-54
2023/02/15 06:19:22;;;;;;;10.57;9.10;;;;;;;-1.71;100.00;99674.75;15268506;19;20078;-49
2023/02/15 06:24:50;;;;;;;9.68;8.35;;;;;;;-1.69;100.00;99672.03;15268657;19;20019;-54
2023/02/15 06:30:16;;;;;;;10.40;9.00;;;;;;;-1.68;100.00;99679.91;15270514;19;20435;-49
2023/02/15 06:35:40;;;;;;;12.43;9.43;;;;;;;-1.70;100.00;99681.72;15272395;19;20074;-52
2023/02/15 06:41:14;;;;;;;8.73;7.80;;;;;;;-1.76;100.00;99684.59;15270966;19;20024;-53
2023/02/15 06:46:39;;;;;;;8.38;7.50;;;;;;;-1.87;100.00;99663.81;15266711;19;20010;-55
2023/02/15 06:52:03;;;;;;;7.15;6.45;;;;;;;-1.96;100.00;99666.75;15270792;19;20039;-51
2023/02/15 06:57:33;;;;;;;6.97;5.78;;;;;;;-2.01;100.00;99656.34;15273780;19;20026;-50
2023/02/15 07:03:03;;;;;;;6.03;5.45;;;;;;;-2.04;100.00;99644.13;15270397;19;20723;-50
2023/02/15 07:08:28;;;;;;;6.50;5.80;;;;;;;-2.06;100.00;99637.19;15269096;19;20011;-51
2023/02/15 07:13:56;;;;;;;6.65;6.05;;;;;;;-2.09;100.00;99635.47;15274880;19;20017;-52
2023/02/15 07:19:22;;;;;;;6.93;6.22;;;;;;;-2.05;100.00;99637.13;15269071;19;20010;-51
2023/02/15 07:24:46;;;;;;;7.70;6.88;;;;;;;-1.99;100.00;99630.75;15268202;19;20011;-53
2023/02/15 07:30:15;;;;;;;10.05;6.90;;;;;;;-1.90;100.00;99640.16;15270044;19;20010;-50
2023/02/15 07:35:40;;;;;;;8.02;7.22;;;;;;;-1.80;100.00;99635.41;15269421;19;20080;-49
2023/02/15 07:41:14;;;;;;;8.35;7.30;;;;;;;-1.69;100.00;99635.88;15267359;19;20019;-52
2023/02/15 07:46:41;;;;;;;8.70;7.80;;;;;;;-1.57;100.00;99627.53;15270050;19;20021;-52
2023/02/15 07:52:06;;;;;;;8.93;8.02;;;;;;;-1.44;100.00;99629.75;15274149;19;20091;-53
2023/02/15 07:57:31;;;;;;;9.60;8.20;;;;;;;-1.27;100.00;99643.22;15267384;19;20475;-48
2023/02/15 08:08:37;;;;;;;6.63;5.78;;;;;;;-0.84;100.00;99638.09;15261834;19;20032;-49
2023/02/15 08:14:04;;;;;;;5.00;4.07;;;;;;;-0.68;100.00;99641.00;15280548;19;20386;-54
2023/02/15 08:19:34;;;;;;;4.65;4.15;;;;;;;-0.45;100.00;99631.31;15274341;19;20753;-52
2023/02/15 08:24:59;;;;;;;3.90;3.50;;;;;;;-0.17;100.00;99624.84;15272635;19;20373;-54
2023/02/15 08:30:24;;;;;;;3.50;3.20;;;;;;;-0.01;100.00;99591.50;15274354;19;20016;-53
2023/02/15 08:35:52;;;;;;;4.63;3.40;;;;;;;0.18;100.00;99579.25;15279457;19;20528;-53
2023/02/15 08:41:25;;;;;;;3.25;2.95;;;;;;;0.34;100.00;99563.53;15279307;19;20018;-49
2023/02/15 08:46:51;;;;;;;3.78;3.35;;;;;;;0.47;100.00;99547.97;15277194;19;20010;-51
2023/02/15 08:52:19;;;;;;;3.60;3.20;;;;;;;0.65;100.00;99541.81;15274806;19;20018;-48
2023/02/15 08:57:45;;;;;;;4.65;4.25;;;;;;;0.86;100.00;99533.78;15277816;19;20018;-52
2023/02/15 09:03:10;;;;;;;17.38;14.45;;;;;;;1.02;100.00;99536.56;15282519;19;20582;-55
2023/02/15 09:08:37;;;;;;;5.60;5.00;;;;;;;1.19;100.00;99533.97;15279313;19;20018;-50
2023/02/15 09:14:04;;;;;;;5.10;4.60;;;;;;;1.33;100.00;99522.66;15279629;19;20053;-53
2023/02/15 09:19:28;;;;;;;5.13;4.55;;;;;;;1.53;100.00;99523.47;15277630;19;20018;-50
2023/02/15 09:24:56;;;;;;;4.10;3.70;;;;;;;1.66;100.00;99527.22;15271349;19;20085;-51
2023/02/15 09:30:21;;;;;;;4.20;3.80;;;;;;;1.83;100.00;99514.88;15275042;19;20728;-51
2023/02/15 09:35:45;;;;;;;3.63;3.33;;;;;;;2.00;100.00;99519.34;15278464;19;20433;-51
2023/02/15 09:41:34;;;;;;;3.45;3.15;;;;;;;2.15;100.00;99515.00;15274324;19;20070;-49
2023/02/15 09:47:37;;;;;;;2.97;2.67;;;;;;;2.51;100.00;99513.13;15272003;19;20025;-50
2023/02/15 09:53:19;;;;;;;2.72;2.53;;;;;;;2.66;100.00;99501.66;15275778;19;20383;-54
2023/02/15 09:58:57;;;;;;;3.22;2.20;;;;;;;2.95;100.00;99485.00;15245058;19;20015;-51
2023/02/15 10:04:49;;;;;;;3.25;2.00;;;;;;;3.27;100.00;99469.84;15273306;19;20612;-52
2023/02/15 10:10:25;;;;;;;2.40;2.20;;;;;;;3.54;100.00;99450.53;15274608;19;20035;-51
2023/02/15 10:16:07;;;;;;;2.20;2.00;;;;;;;3.84;100.00;99454.97;15272266;19;20373;-54
2023/02/15 10:21:46;;;;;;;2.28;2.00;;;;;;;4.15;100.00;99445.09;15267522;19;20051;-51
2023/02/15 10:27:17;;;;;;;1.73;1.63;;;;;;;4.48;100.00;99436.78;15270291;19;20022;-48
2023/02/15 10:32:55;;;;;;;2.40;1.73;;;;;;;4.70;100.00;99435.44;15265744;19;20021;-50
2023/02/15 10:38:34;;;;;;;2.30;2.10;;;;;;;4.90;100.00;99425.25;15272180;19;20074;-48
2023/02/15 10:44:10;;;;;;;2.65;1.80;;;;;;;5.20;100.00;99426.84;15274487;19;20021;-49
2023/02/15 10:50:01;;;;;;;2.22;1.88;;;;;;;5.46;100.00;99426.91;15274220;19;20027;-53
2023/02/15 10:55:36;;;;;;;1.90;1.70;;;;;;;5.73;100.00;99418.81;15277023;19;20013;-51
2023/02/15 11:01:11;;;;;;;2.08;1.75;;;;;;;5.98;100.00;99411.78;15275856;19;20017;-52
2023/02/15 11:06:42;;;;;;;4.43;1.77;;;;;;;6.17;100.00;99414.03;15270319;19;20022;-55
2023/02/15 11:12:07;;;;;;;2.17;2.00;;;;;;;6.32;100.00;99409.41;15273095;19;20018;-49
2023/02/15 11:17:39;;;;;;;2.90;2.38;;;;;;;6.40;100.00;99420.44;15267975;19;20014;-48
2023/02/15 11:23:10;;;;;;;2.50;2.10;;;;;;;6.41;100.00;99408.75;15268830;19;20010;-50
2023/02/15 11:28:46;;;;;;;2.30;2.10;;;;;;;6.44;100.00;99395.16;15271026;19;20031;-50
2023/02/15 11:34:15;;;;;;;3.17;2.08;;;;;;;6.50;100.00;99376.94;15268323;19;20022;-48
2023/02/15 11:39:54;;;;;;;2.30;2.10;;;;;;;6.60;100.00;99375.31;15269853;19;20469;-50
2023/02/15 11:45:28;;;;;;;3.03;1.90;;;;;;;6.65;100.00;99357.06;15273340;19;20014;-49
2023/02/15 11:50:54;;;;;;;1.88;1.58;;;;;;;6.82;100.00;99357.66;15288625;19;20029;-52
2023/02/15 11:56:24;;;;;;;2.15;1.90;;;;;;;6.92;100.00;99342.59;15284918;19;20082;-51
2023/02/15 12:01:52;;;;;;;2.25;1.88;;;;;;;7.04;100.00;99336.31;15289217;19;20014;-51
2023/02/15 12:07:25;;;;;;;2.03;1.67;;;;;;;7.24;100.00;99324.06;15276414;19;20027;-53
2023/02/15 12:12:53;;;;;;;1.92;1.73;;;;;;;7.39;100.00;99330.06;15289112;19;20032;-48
2023/02/15 12:18:27;;;;;;;2.72;1.55;;;;;;;7.60;100.00;99321.31;15286530;19;20010;-51
2023/02/15 12:23:57;;;;;;;1.50;1.40;;;;;;;8.02;100.00;99318.94;15309174;19;20398;-52
2023/02/15 12:29:30;;;;;;;2.03;1.50;;;;;;;8.27;100.00;99313.41;15333254;19;20044;-52
2023/02/15 12:34:55;;;;;;;2.30;1.40;;;;;;;8.66;100.00;99313.84;15284446;19;20472;-53
2023/02/15 12:40:25;;;;;;;1.40;1.30;;;;;;;8.99;100.00;99311.16;15272328;19;20019;-54
2023/02/15 12:45:53;;;;;;;2.00;1.17;;;;;;;9.17;100.00;99304.19;15276888;19;20037;-52
2023/02/15 12:51:18;;;;;;;1.27;1.10;;;;;;;9.55;100.00;99300.06;15282936;19;20014;-55
2023/02/15 12:56:43;;;;;;;2.13;1.10;;;;;;;9.77;100.00;99292.81;15277273;19;20044;-52
2023/02/15 13:02:23;;;;;;;1.58;1.30;;;;;;;10.09;100.00;99290.94;15283293;19;20019;-54
2023/02/15 13:07:47;;;;;;;1.10;1.00;;;;;;;10.36;100.00;99276.84;15275637;19;20020;-54
2023/02/15 13:13:14;;;;;;;1.80;1.25;;;;;;;10.63;100.00;99272.66;15275372;19;20029;-51
2023/02/15 13:18:45;;;;;;;1.20;1.10;;;;;;;10.92;100.00;99264.56;15276104;19;20058;-51
2023/02/15 13:24:20;;;;;;;2.80;1.10;;;;;;;11.41;100.00;99259.09;15278121;19;20019;-54
2023/02/15 13:29:46;;;;;;;1.20;1.00;;;;;;;11.99;100.00;99238.28;15274910;19;20024;-51
2023/02/15 13:35:18;;;;;;;0.95;0.90;;;;;;;12.31;91.14;99236.97;15277070;19;20476;-54
2023/02/15 13:40:56;;;;;;;1.15;0.80;;;;;;;12.68;100.00;99231.56;15273977;19;20034;-50
2023/02/15 13:46:33;;;;;;;3.75;0.90;;;;;;;13.04;84.16;99223.44;15275786;19;20026;-50
2023/02/15 13:52:14;;;;;;;3.65;0.80;;;;;;;13.19;87.32;99235.38;15277677;19;20098;-56
2023/02/15 13:58:13;;;;;;;1.08;0.60;;;;;;;13.46;77.81;99228.16;15276027;19;20547;-50
2023/02/15 14:04:10;;;;;;;0.73;0.63;;;;;;;13.53;67.23;99231.91;15277855;19;20035;-52
2023/02/15 14:09:47;;;;;;;1.10;0.65;;;;;;;13.68;61.68;99234.88;15271191;19;20094;-49
2023/02/15 14:15:22;;;;;;;2.70;0.70;;;;;;;13.98;68.98;99229.94;15271192;19;20340;-50
2023/02/15 14:20:54;;;;;;;0.50;0.50;;;;;;;14.29;60.82;99226.63;15277838;19;20018;-50
2023/02/15 14:26:31;;;;;;;0.88;0.65;;;;;;;14.17;62.28;99223.38;15274109;19;20814;-49
2023/02/15 14:32:01;;;;;;;2.47;0.75;;;;;;;14.26;61.21;99223.41;15274656;19;20686;-48
2023/02/15 14:37:36;;;;;;;1.05;0.60;;;;;;;14.59;75.46;99208.03;15272026;19;20021;-49
2023/02/15 14:43:17;;;;;;;0.95;0.70;;;;;;;14.75;56.29;99218.09;15272232;19;20053;-50
2023/02/15 14:48:48;;;;;;;1.25;0.60;;;;;;;14.80;59.55;99212.16;15266301;19;20388;-50
2023/02/15 14:54:12;;;;;;;1.23;0.70;;;;;;;15.09;65.55;99208.94;15271518;19;20051;-51
2023/02/15 14:59:45;;;;;;;0.90;0.70;;;;;;;14.98;66.89;99208.41;15268427;19;20423;-48
2023/02/15 15:05:15;;;;;;;1.25;0.90;;;;;;;15.03;69.16;99206.88;15268751;19;20026;-50
2023/02/15 15:10:45;;;;;;;1.92;1.00;;;;;;;14.77;83.84;99207.06;15267856;19;20030;-49
2023/02/15 15:16:37;;;;;;;3.53;1.40;;;;;;;14.56;100.00;99207.53;15270858;19;20350;-48
2023/02/15 15:22:06;;;;;;;4.80;2.10;;;;;;;14.10;100.00;99202.53;15278803;19;20082;-48
2023/02/15 15:28:00;;;;;;;2.95;2.20;;;;;;;13.67;100.00;99207.97;15280180;19;20476;-49
2023/02/15 15:34:12;;;;;;;2.85;2.00;;;;;;;13.43;100.00;99208.66;15285992;19;20022;-53
2023/02/15 15:40:06;;;;;;;2.22;2.03;;;;;;;13.38;100.00;99206.41;15279413;19;20020;-52
2023/02/15 15:46:09;;;;;;;2.40;2.00;;;;;;;13.10;100.00;99212.00;15283654;19;20015;-49
2023/02/15 15:51:39;;;;;;;2.50;2.30;;;;;;;12.88;100.00;99206.06;15281866;19;20491;-48
2023/02/15 15:57:08;;;;;;;2.40;2.20;;;;;;;12.27;100.00;99218.50;15283821;19;20044;-48
2023/02/15 16:02:33;;;;;;;4.57;2.47;;;;;;;12.10;100.00;99212.94;15285194;19;20086;-51
2023/02/15 16:07:58;;;;;;;2.60;2.40;;;;;;;11.91;100.00;99211.16;15279505;19;20415;-49
2023/02/15 16:13:18;;;;;;;3.65;2.60;;;;;;;11.55;100.00;99213.75;15283818;19;20018;-48
2023/02/15 16:18:47;;;;;;;4.97;2.47;;;;;;;11.25;100.00;99203.06;15280159;19;20039;-52
2023/02/15 16:24:26;;;;;;;2.80;2.45;;;;;;;11.01;100.00;99217.00;15279015;19;20044;-50
2023/02/15 16:29:54;;;;;;;5.45;2.90;;;;;;;10.53;100.00;99225.97;15267721;19;20090;-49
2023/02/15 16:35:20;;;;;;;3.30;3.00;;;;;;;10.22;100.00;99223.38;15280479;19;20018;-47
2023/02/15 16:41:03;;;;;;;3.75;3.10;;;;;;;9.93;100.00;99218.78;15278723;19;20010;-54
2023/02/15 16:46:33;;;;;;;3.90;2.97;;;;;;;9.65;100.00;99213.16;15278498;19;20010;-53
2023/02/15 16:52:05;;;;;;;3.90;2.90;;;;;;;9.48;100.00;99209.28;15281938;19;20090;-49
2023/02/15 16:57:35;;;;;;;3.38;3.08;;;;;;;9.23;100.00;99209.56;15275736;19;20019;-50
2023/02/15 17:03:09;;;;;;;3.80;3.10;;;;;;;8.96;100.00;99211.97;15283236;19;20094;-49
2023/02/15 17:08:36;;;;;;;3.60;3.08;;;;;;;8.72;100.00;99219.28;15276551;19;20044;-54
2023/02/15 17:14:21;;;;;;;4.78;3.83;;;;;;;8.47;100.00;99220.47;15280268;19;20010;-50
2023/02/15 17:19:52;;;;;;;3.63;3.00;;;;;;;8.08;100.00;99217.41;15275371;19;20480;-51
2023/02/15 17:25:28;;;;;;;4.00;3.60;;;;;;;7.90;100.00;99222.44;15278861;19;20420;-57
2023/02/15 17:30:55;;;;;;;4.95;3.28;;;;;;;7.84;100.00;99227.34;15275253;19;20002;-54
2023/02/15 17:36:28;;;;;;;4.85;3.20;;;;;;;7.78;100.00;99218.94;15277979;19;20483;-49
2023/02/15 17:41:59;;;;;;;4.70;3.65;;;;;;;7.64;100.00;99226.25;15267836;19;20062;-49
2023/02/15 17:47:28;;;;;;;4.78;4.25;;;;;;;7.56;100.00;99234.06;15274681;19;20372;-50
2023/02/15 17:52:56;;;;;;;5.97;5.30;;;;;;;7.46;100.00;99238.47;15277959;19;20488;-57
2023/02/15 17:58:22;;;;;;;4.45;4.05;;;;;;;7.31;100.00;99238.69;15272321;19;20356;-53
2023/02/15 18:15:08;;;;;;;4.13;3.10;;;;;;;6.82;100.00;99237.13;15278004;19;20021;-50
2023/02/15 18:20:36;;;;;;;2.92;2.45;;;;;;;6.62;100.00;99239.50;15271500;19;20484;-50
2023/02/15 18:26:03;;;;;;;2.58;2.38;;;;;;;6.48;100.00;99246.75;15275154;19;20078;-50
2023/02/15 18:31:28;;;;;;;2.72;2.40;;;;;;;6.31;100.00;99239.97;15272731;19;20025;-51
2023/02/15 18:36:53;;;;;;;2.67;2.28;;;;;;;6.16;100.00;99231.25;15273336;19;20018;-48
2023/02/15 18:42:25;;;;;;;2.67;2.38;;;;;;;6.07;100.00;99239.09;15272272;19;20018;-53
2023/02/15 18:47:50;;;;;;;2.47;2.25;;;;;;;5.97;100.00;99228.16;15273067;19;20025;-50
2023/02/15 18:53:19;;;;;;;3.03;2.20;;;;;;;5.81;100.00;99231.09;15269846;19;20018;-49
2023/02/15 18:58:48;;;;;;;2.58;2.03;;;;;;;5.75;100.00;99227.06;15266807;19;20074;-51
2023/02/15 19:04:14;;;;;;;2.50;2.25;;;;;;;5.65;100.00;99228.69;15268807;19;20090;-53
2023/02/15 19:09:41;;;;;;;2.47;2.20;;;;;;;5.52;100.00;99232.25;15265134;19;20021;-52
2023/02/15 19:15:15;;;;;;;2.40;2.20;;;;;;;5.36;100.00;99231.59;15272646;19;20011;-50
2023/02/15 19:20:44;;;;;;;2.35;2.15;;;;;;;5.27;100.00;99226.91;15272286;19;20015;-56
2023/02/15 19:26:09;;;;;;;3.67;2.22;;;;;;;5.15;100.00;99226.81;15268378;19;20025;-52
2023/02/15 19:31:36;;;;;;;2.90;2.50;;;;;;;5.08;100.00;99231.72;15267701;19;20048;-50
2023/02/15 19:37:01;;;;;;;3.05;2.50;;;;;;;4.95;100.00;99225.50;15264022;19;20327;-50
2023/02/15 19:42:33;;;;;;;3.13;2.67;;;;;;;4.85;100.00;99225.31;15269345;19;20037;-50
2023/02/15 19:48:02;;;;;;;2.80;2.50;;;;;;;4.80;100.00;99223.91;15266086;19;20671;-52
2023/02/15 19:53:32;;;;;;;2.83;2.53;;;;;;;4.71;100.00;99215.53;15266552;19;20449;-53
2023/02/15 19:58:58;;;;;;;3.40;2.50;;;;;;;4.61;100.00;99204.66;15266853;19;20669;-52
2023/02/15 20:04:25;;;;;;;2.55;2.35;;;;;;;4.48;100.00;99204.63;15272115;19;20031;-53
2023/02/15 20:09:50;;;;;;;2.90;2.60;;;;;;;4.41;100.00;99200.66;15271658;19;20043;-51
2023/02/15 20:15:29;;;;;;;3.05;2.63;;;;;;;4.26;100.00;99202.53;15284240;19;20489;-51
2023/02/15 20:20:57;;;;;;;3.33;2.72;;;;;;;4.16;100.00;99212.97;15281176;19;20018;-53
2023/02/15 20:26:28;;;;;;;2.95;2.67;;;;;;;4.08;100.00;99206.41;15278030;19;20047;-54
2023/02/15 20:31:53;;;;;;;3.03;2.73;;;;;;;3.98;100.00;99201.69;15284297;19;20480;-55
2023/02/15 20:37:29;;;;;;;3.63;2.80;;;;;;;3.87;100.00;99193.53;15280844;19;20025;-51
2023/02/15 20:42:55;;;;;;;3.38;3.05;;;;;;;3.77;100.00;99197.75;15272832;19;20018;-49
2023/02/15 20:48:19;;;;;;;4.20;3.10;;;;;;;3.66;100.00;99193.97;15278125;19;20018;-50
2023/02/15 20:53:47;;;;;;;4.35;3.20;;;;;;;3.54;100.00;99194.75;15283517;19;20377;-52
2023/02/15 20:59:20;;;;;;;3.65;3.13;;;;;;;3.43;100.00;99198.06;15277017;19;20043;-55
2023/02/15 21:04:45;;;;;;;3.60;3.30;;;;;;;3.36;100.00;99197.59;15279800;19;20019;-50
2023/02/15 21:10:13;;;;;;;4.22;3.50;;;;;;;3.27;100.00;99205.34;15275042;19;20014;-49
2023/02/15 21:15:40;;;;;;;3.60;3.30;;;;;;;3.16;100.00;99206.00;15272305;19;20030;-49
2023/02/15 21:21:08;;;;;;;4.05;3.55;;;;;;;3.16;100.00;99198.88;15278406;19;20014;-52
2023/02/15 21:26:36;;;;;;;4.00;3.60;;;;;;;3.24;100.00;99204.56;15276938;19;20019;-53
2023/02/15 21:32:02;;;;;;;3.97;3.60;;;;;;;3.21;100.00;99203.91;15277502;19;20023;-49
2023/02/15 21:37:33;;;;;;;4.45;3.90;;;;;;;3.19;100.00;99203.16;15275682;19;20022;-51
2023/02/15 21:48:38;;;;;;;6.20;3.88;;;;;;;3.11;100.00;99211.59;15270346;19;20025;-53
2023/02/15 21:54:03;;;;;;;5.15;4.40;;;;;;;3.08;100.00;99210.00;15280730;19;20017;-51
2023/02/15 21:59:31;;;;;;;5.82;4.45;;;;;;;3.02;100.00;99204.19;15275948;19;20017;-53
2023/02/15 22:04:56;;;;;;;5.28;4.50;;;;;;;2.93;100.00;99194.94;15279033;19;20571;-54
2023/02/15 22:10:21;;;;;;;6.70;4.82;;;;;;;2.80;100.00;99193.97;15276656;19;20014;-53
2023/02/15 22:15:48;;;;;;;5.07;4.55;;;;;;;2.74;100.00;99198.75;15276740;19;20035;-52
2023/02/15 22:21:15;;;;;;;4.25;3.85;;;;;;;2.69;100.00;99200.81;15271722;19;20781;-54
2023/02/15 22:26:39;;;;;;;5.30;4.80;;;;;;;2.63;100.00;99209.16;14766246;19;10001513;-52
2023/02/15 22:32:13;;;;;;;5.20;4.70;;;;;;;2.54;100.00;99210.56;15275134;19;20014;-51
2023/02/15 22:37:37;;;;;;;5.22;4.50;;;;;;;2.49;100.00;99217.09;15274229;19;20020;-49
2023/02/15 22:43:05;;;;;;;4.80;4.30;;;;;;;2.46;100.00;99208.34;15275587;19;20014;-50
2023/02/15 22:48:32;;;;;;;5.18;4.47;;;;;;;2.44;100.00;99207.59;15272239;19;20082;-53
2023/02/15 22:53:57;;;;;;;4.97;4.47;;;;;;;2.42;100.00;99222.75;15272611;19;20022;-51
2023/02/15 22:59:27;;;;;;;5.25;4.75;;;;;;;2.37;100.00;99213.34;15271714;19;20010;-49
2023/02/15 23:04:55;;;;;;;6.63;5.73;;;;;;;2.31;100.00;99209.25;15276652;19;20461;-54
2023/02/15 23:10:23;;;;;;;5.82;4.90;;;;;;;2.23;100.00;99209.72;15269727;19;20707;-51
2023/02/15 23:15:51;;;;;;;6.13;5.40;;;;;;;2.15;100.00;99209.28;15273157;19;20026;-52
2023/02/15 23:21:27;;;;;;;6.78;5.90;;;;;;;2.07;100.00;99207.06;15272903;19;20346;-50
2023/02/15 23:26:52;;;;;;;6.10;5.50;;;;;;;2.03;100.00;99210.84;15273606;19;20542;-50
2023/02/15 23:32:21;;;;;;;5.95;5.30;;;;;;;2.01;100.00;99207.41;15274843;19;20021;-53
2023/02/15 23:37:49;;;;;;;7.22;5.38;;;;;;;1.96;100.00;99201.50;15272495;19;20024;-54
2023/02/15 23:43:30;;;;;;;6.57;5.53;;;;;;;1.93;100.00;99207.00;15280444;19;20058;-50
2023/02/15 23:48:55;;;;;;;6.75;6.05;;;;;;;1.88;100.00;99204.63;15283321;19;20018;-50
2023/02/15 23:54:23;;;;;;;7.30;6.32;;;;;;;1.83;100.00;99204.00;15285163;19;20019;-53
2023/02/15 23:59:48;;;;;;;6.40;5.75;;;;;;;1.79;100.00;99203.31;15282373;19;20022;-53
